Airfield :
LOGIN :

Register | Disclaimer

   EN    FR    IT 

 










Legend :    VFR   Marginal VFR   IFR   Intensive IFR   Very Intensive IFR
Visi :
Ceiling :
>= 8 km
>= 3000ft
5 to 8 km
1000 to 3000 ft
1500m to 5 km
500 to 1000 ft
800 to 1500m
200 to 500 ft
< 800m
< 200 ft
Symbols :   Thunderstorms  Fog  Heavy snow  Heavy precipitations  Wind > 20 kt
SIGMETs :     Misc.  Thunderstorms  Icing  Turbulence  Mountain Waves  Volcanic Ashes







- Airport Elevation : 909 ft
- IATA code : KSF


EDVK - Kassel Calden

CURRENT METAR :
  • 180520Z 34003KT 240V040 0500 R27/0800 FG OVC002 09/09 Q1021

EXPIRED METARs :
  • 180450Z 33005KT 0800 R27/P2000N FG BKN003 09/09 Q1021
  • 180420Z 29006KT 0800 R27/P2000N FG BKN003 09/09 Q1021
  • 180350Z 29004KT 3000 BR BCFG FEW001 SCT005 08/08 Q1021
  • 180320Z 31003KT 4000 BR FEW001 SCT005 08/08 Q1020

TAF TAF EDVK
Valid from the 18 at 06:00 until the 18 at 15:00 UTC


180500Z 1806/1815 VRB03KT 6000 SCT004
TEMPO 1806/1811 2500 BR BKN004
PROB40
TEMPO 1806/1809 0500 FG OVC001
BECMG 1808/1810 35008KT
No reported NOTAMs for that airfield.



MET'MAP, your aeronautical weather chart ! - Copyright ORBIFLY December 2007 - Disclaimer

ORBIFLY MET'MAP TEAM :

Programming & Development : Alexandra Zaïnal
Concept & Development : Baudouin d'Aumeries
Co-Development & Prog : Marc-Olivier Méhu
Technical & hardware support : Manuel Goepfert

Contact : metmap@orbifly.com




SOURCES & CREDITS :

   NOAA